sensor_id;sensor_type;location;lat;lon;timestamp;pressure;altitude;pressure_sealevel;temperature;humidity
47761;BME280;33524;55.434;38.520;2023-07-29T00:00:20;99160.69;;;16.06;100.00
47761;BME280;33524;55.434;38.520;2023-07-29T00:02:48;99181.06;;;16.06;100.00
47761;BME280;33524;55.434;38.520;2023-07-29T00:05:16;99175.75;;;16.06;100.00
47761;BME280;33524;55.434;38.520;2023-07-29T00:07:47;99180.88;;;16.07;100.00
47761;BME280;33524;55.434;38.520;2023-07-29T00:10:16;99168.38;;;15.93;100.00
47761;BME280;33524;55.434;38.520;2023-07-29T00:12:45;99178.22;;;15.84;100.00
47761;BME280;33524;55.434;38.520;2023-07-29T00:15:13;99170.56;;;15.89;100.00
47761;BME280;33524;55.434;38.520;2023-07-29T00:17:41;99167.25;;;15.87;100.00
47761;BME280;33524;55.434;38.520;2023-07-29T00:20:09;99166.66;;;15.77;100.00
47761;BME280;33524;55.434;38.520;2023-07-29T00:22:37;99163.13;;;15.85;100.00
47761;BME280;33524;55.434;38.520;2023-07-29T00:25:06;99161.34;;;15.77;100.00
47761;BME280;33524;55.434;38.520;2023-07-29T00:27:34;99151.75;;;15.76;100.00
47761;BME280;33524;55.434;38.520;2023-07-29T00:30:02;99154.19;;;15.86;100.00
47761;BME280;33524;55.434;38.520;2023-07-29T00:32:32;99149.72;;;15.86;100.00
47761;BME280;33524;55.434;38.520;2023-07-29T00:35:00;99136.66;;;15.77;100.00
47761;BME280;33524;55.434;38.520;2023-07-29T00:37:30;99141.91;;;15.85;100.00
47761;BME280;33524;55.434;38.520;2023-07-29T00:39:58;99146.41;;;15.84;100.00
47761;BME280;33524;55.434;38.520;2023-07-29T00:42:27;99143.81;;;15.76;100.00
47761;BME280;33524;55.434;38.520;2023-07-29T00:44:58;99144.47;;;15.78;100.00
47761;BME280;33524;55.434;38.520;2023-07-29T00:47:26;99144.75;;;15.83;100.00
47761;BME280;33524;55.434;38.520;2023-07-29T00:49:54;99143.06;;;15.90;100.00
47761;BME280;33524;55.434;38.520;2023-07-29T00:52:23;99135.19;;;15.74;100.00
47761;BME280;33524;55.434;38.520;2023-07-29T00:54:54;99138.19;;;15.71;100.00
47761;BME280;33524;55.434;38.520;2023-07-29T00:57:22;99130.41;;;15.69;100.00
47761;BME280;33524;55.434;38.520;2023-07-29T00:59:53;99131.38;;;15.68;100.00
47761;BME280;33524;55.434;38.520;2023-07-29T01:02:22;99125.91;;;15.70;100.00
47761;BME280;33524;55.434;38.520;2023-07-29T01:04:57;99119.03;;;15.61;100.00
47761;BME280;33524;55.434;38.520;2023-07-29T01:07:44;99108.06;;;15.64;100.00
47761;BME280;33524;55.434;38.520;2023-07-29T01:10:30;99083.12;;;15.50;100.00
47761;BME280;33524;55.434;38.520;2023-07-29T01:13:15;99077.38;;;15.46;100.00
47761;BME280;33524;55.434;38.520;2023-07-29T01:15:55;99087.72;;;15.33;100.00
47761;BME280;33524;55.434;38.520;2023-07-29T01:18:30;99096.31;;;15.35;100.00
47761;BME280;33524;55.434;38.520;2023-07-29T01:21:09;99090.06;;;15.28;100.00
47761;BME280;33524;55.434;38.520;2023-07-29T01:23:39;99098.31;;;15.33;100.00
47761;BME280;33524;55.434;38.520;2023-07-29T01:26:07;99102.28;;;15.29;100.00
47761;BME280;33524;55.434;38.520;2023-07-29T01:28:35;99112.84;;;15.37;100.00
47761;BME280;33524;55.434;38.520;2023-07-29T01:31:13;99117.53;;;15.27;100.00
47761;BME280;33524;55.434;38.520;2023-07-29T01:33:50;99110.28;;;15.21;100.00
47761;BME280;33524;55.434;38.520;2023-07-29T01:36:22;99097.44;;;15.09;100.00
47761;BME280;33524;55.434;38.520;2023-07-29T01:38:54;99111.47;;;15.18;100.00
47761;BME280;33524;55.434;38.520;2023-07-29T01:41:24;99127.41;;;15.41;100.00
47761;BME280;33524;55.434;38.520;2023-07-29T01:43:53;99131.47;;;15.21;100.00
47761;BME280;33524;55.434;38.520;2023-07-29T01:46:21;99116.41;;;15.21;100.00
47761;BME280;33524;55.434;38.520;2023-07-29T01:48:49;99117.31;;;15.05;100.00
47761;BME280;33524;55.434;38.520;2023-07-29T01:51:20;99119.13;;;15.05;100.00
47761;BME280;33524;55.434;38.520;2023-07-29T01:53:50;99149.56;;;15.09;100.00
47761;BME280;33524;55.434;38.520;2023-07-29T01:56:17;99199.28;;;15.38;100.00
47761;BME280;33524;55.434;38.520;2023-07-29T01:58:49;99224.37;;;15.98;100.00
47761;BME280;33524;55.434;38.520;2023-07-29T02:01:17;99242.03;;;16.37;100.00
47761;BME280;33524;55.434;38.520;2023-07-29T02:03:46;99247.22;;;15.99;100.00
47761;BME280;33524;55.434;38.520;2023-07-29T02:06:14;99257.41;;;15.87;100.00
47761;BME280;33524;55.434;38.520;2023-07-29T02:08:42;99256.03;;;15.91;100.00
47761;BME280;33524;55.434;38.520;2023-07-29T02:11:10;99262.37;;;15.90;100.00
47761;BME280;33524;55.434;38.520;2023-07-29T02:13:38;99260.69;;;15.89;100.00
47761;BME280;33524;55.434;38.520;2023-07-29T02:16:06;99237.94;;;15.72;100.00
47761;BME280;33524;55.434;38.520;2023-07-29T02:18:34;99217.78;;;15.54;100.00
47761;BME280;33524;55.434;38.520;2023-07-29T02:21:02;99201.25;;;15.44;100.00
47761;BME280;33524;55.434;38.520;2023-07-29T02:23:30;99173.19;;;15.19;100.00
47761;BME280;33524;55.434;38.520;2023-07-29T02:25:58;99155.84;;;15.08;100.00
47761;BME280;33524;55.434;38.520;2023-07-29T02:28:29;99162.63;;;15.10;100.00
47761;BME280;33524;55.434;38.520;2023-07-29T02:31:15;99169.47;;;15.44;100.00
47761;BME280;33524;55.434;38.520;2023-07-29T02:33:44;99183.25;;;15.23;100.00
47761;BME280;33524;55.434;38.520;2023-07-29T02:36:13;99179.19;;;15.04;100.00
47761;BME280;33524;55.434;38.520;2023-07-29T02:38:42;99178.87;;;14.99;100.00
47761;BME280;33524;55.434;38.520;2023-07-29T02:41:11;99168.63;;;14.88;100.00
47761;BME280;33524;55.434;38.520;2023-07-29T02:43:42;99171.63;;;14.93;100.00
47761;BME280;33524;55.434;38.520;2023-07-29T02:46:11;99173.59;;;14.91;100.00
47761;BME280;33524;55.434;38.520;2023-07-29T02:48:38;99165.66;;;14.99;100.00
47761;BME280;33524;55.434;38.520;2023-07-29T02:51:06;99162.66;;;14.94;100.00
47761;BME280;33524;55.434;38.520;2023-07-29T02:53:34;99156.03;;;14.98;100.00
47761;BME280;33524;55.434;38.520;2023-07-29T02:56:04;99158.69;;;14.98;100.00
47761;BME280;33524;55.434;38.520;2023-07-29T02:58:38;99152.25;;;15.01;100.00
47761;BME280;33524;55.434;38.520;2023-07-29T03:01:06;99139.34;;;14.89;100.00
47761;BME280;33524;55.434;38.520;2023-07-29T03:03:35;99128.28;;;14.86;100.00
47761;BME280;33524;55.434;38.520;2023-07-29T03:06:10;99109.78;;;14.78;100.00
47761;BME280;33524;55.434;38.520;2023-07-29T03:08:38;99092.13;;;14.70;100.00
47761;BME280;33524;55.434;38.520;2023-07-29T03:11:12;99094.91;;;14.68;100.00
47761;BME280;33524;55.434;38.520;2023-07-29T03:13:40;99100.22;;;14.60;100.00
47761;BME280;33524;55.434;38.520;2023-07-29T03:16:10;99099.22;;;14.61;100.00
47761;BME280;33524;55.434;38.520;2023-07-29T03:18:40;99095.91;;;14.59;100.00
47761;BME280;33524;55.434;38.520;2023-07-29T03:21:11;99105.16;;;14.71;100.00
47761;BME280;33524;55.434;38.520;2023-07-29T03:23:40;99109.47;;;14.64;100.00
47761;BME280;33524;55.434;38.520;2023-07-29T03:26:09;99112.13;;;14.64;100.00
47761;BME280;33524;55.434;38.520;2023-07-29T03:28:43;99096.09;;;14.66;100.00
47761;BME280;33524;55.434;38.520;2023-07-29T03:31:11;99098.09;;;14.64;100.00
47761;BME280;33524;55.434;38.520;2023-07-29T03:33:43;99089.47;;;14.62;100.00
47761;BME280;33524;55.434;38.520;2023-07-29T03:36:11;99093.94;;;14.61;100.00
47761;BME280;33524;55.434;38.520;2023-07-29T03:38:39;99090.31;;;14.62;100.00
47761;BME280;33524;55.434;38.520;2023-07-29T03:41:08;99111.75;;;14.76;100.00
47761;BME280;33524;55.434;38.520;2023-07-29T03:43:37;99116.06;;;14.85;100.00
47761;BME280;33524;55.434;38.520;2023-07-29T03:46:05;99106.91;;;14.96;100.00
47761;BME280;33524;55.434;38.520;2023-07-29T03:48:40;99105.44;;;14.93;100.00
47761;BME280;33524;55.434;38.520;2023-07-29T03:51:08;99106.91;;;14.96;100.00
47761;BME280;33524;55.434;38.520;2023-07-29T03:53:36;99097.00;;;14.89;100.00
47761;BME280;33524;55.434;38.520;2023-07-29T03:56:05;99101.28;;;14.99;100.00
47761;BME280;33524;55.434;38.520;2023-07-29T03:58:33;99083.31;;;14.78;100.00
47761;BME280;33524;55.434;38.520;2023-07-29T04:01:01;99061.19;;;14.70;100.00
47761;BME280;33524;55.434;38.520;2023-07-29T04:03:30;99054.88;;;14.71;100.00
47761;BME280;33524;55.434;38.520;2023-07-29T04:05:59;99039.34;;;14.68;100.00
47761;BME280;33524;55.434;38.520;2023-07-29T04:08:30;99019.53;;;14.64;100.00
47761;BME280;33524;55.434;38.520;2023-07-29T04:10:58;98997.81;;;14.69;100.00
47761;BME280;33524;55.434;38.520;2023-07-29T04:13:26;98986.06;;;14.71;100.00
47761;BME280;33524;55.434;38.520;2023-07-29T04:15:54;98968.91;;;14.59;100.00
47761;BME280;33524;55.434;38.520;2023-07-29T04:18:23;98967.53;;;14.71;100.00
47761;BME280;33524;55.434;38.520;2023-07-29T04:20:51;98961.31;;;14.64;100.00
47761;BME280;33524;55.434;38.520;2023-07-29T04:23:19;98953.03;;;14.59;100.00
47761;BME280;33524;55.434;38.520;2023-07-29T04:25:48;98957.53;;;14.59;100.00
47761;BME280;33524;55.434;38.520;2023-07-29T04:28:17;98975.88;;;14.60;100.00
47761;BME280;33524;55.434;38.520;2023-07-29T04:30:45;98985.69;;;14.83;100.00
47761;BME280;33524;55.434;38.520;2023-07-29T04:33:13;98964.25;;;14.69;100.00
47761;BME280;33524;55.434;38.520;2023-07-29T04:35:41;98984.31;;;14.95;100.00
47761;BME280;33524;55.434;38.520;2023-07-29T04:38:09;98988.22;;;15.07;100.00
47761;BME280;33524;55.434;38.520;2023-07-29T04:40:37;98998.53;;;14.94;100.00
47761;BME280;33524;55.434;38.520;2023-07-29T04:43:05;98993.97;;;14.80;100.00
47761;BME280;33524;55.434;38.520;2023-07-29T04:45:34;99013.31;;;14.88;100.00
47761;BME280;33524;55.434;38.520;2023-07-29T04:48:03;99016.22;;;15.02;100.00
47761;BME280;33524;55.434;38.520;2023-07-29T04:50:31;99029.28;;;15.03;100.00
47761;BME280;33524;55.434;38.520;2023-07-29T04:52:58;99026.31;;;14.98;100.00
47761;BME280;33524;55.434;38.520;2023-07-29T04:55:27;99042.69;;;15.02;100.00
47761;BME280;33524;55.434;38.520;2023-07-29T04:57:55;99064.69;;;15.02;100.00
47761;BME280;33524;55.434;38.520;2023-07-29T05:00:23;99065.47;;;15.42;100.00
47761;BME280;33524;55.434;38.520;2023-07-29T05:02:51;99076.69;;;15.52;100.00
47761;BME280;33524;55.434;38.520;2023-07-29T05:05:19;99082.66;;;15.78;100.00
47761;BME280;33524;55.434;38.520;2023-07-29T05:07:47;99085.50;;;16.14;100.00
47761;BME280;33524;55.434;38.520;2023-07-29T05:10:16;99085.59;;;16.06;100.00
47761;BME280;33524;55.434;38.520;2023-07-29T05:12:44;99091.31;;;15.94;100.00
47761;BME280;33524;55.434;38.520;2023-07-29T05:15:12;99088.78;;;15.78;100.00
47761;BME280;33524;55.434;38.520;2023-07-29T05:17:40;99080.97;;;15.53;100.00
47761;BME280;33524;55.434;38.520;2023-07-29T05:20:09;99082.38;;;15.41;100.00
47761;BME280;33524;55.434;38.520;2023-07-29T05:22:37;99081.28;;;15.27;100.00
47761;BME280;33524;55.434;38.520;2023-07-29T05:25:06;99088.03;;;15.38;100.00
47761;BME280;33524;55.434;38.520;2023-07-29T05:27:34;99083.59;;;15.30;100.00
47761;BME280;33524;55.434;38.520;2023-07-29T05:30:02;99076.00;;;15.19;100.00
47761;BME280;33524;55.434;38.520;2023-07-29T05:32:30;99078.37;;;15.14;100.00
47761;BME280;33524;55.434;38.520;2023-07-29T05:34:59;99076.16;;;15.26;100.00
47761;BME280;33524;55.434;38.520;2023-07-29T05:37:26;99062.59;;;15.21;100.00
47761;BME280;33524;55.434;38.520;2023-07-29T05:39:55;99055.59;;;15.36;100.00
47761;BME280;33524;55.434;38.520;2023-07-29T05:42:23;99059.12;;;15.51;100.00
47761;BME280;33524;55.434;38.520;2023-07-29T05:44:50;99053.22;;;15.41;100.00
47761;BME280;33524;55.434;38.520;2023-07-29T05:47:19;99064.94;;;15.78;100.00
47761;BME280;33524;55.434;38.520;2023-07-29T05:49:47;99057.00;;;15.70;100.00
47761;BME280;33524;55.434;38.520;2023-07-29T05:52:15;99057.88;;;15.62;100.00
47761;BME280;33524;55.434;38.520;2023-07-29T05:54:44;99054.09;;;15.65;100.00
47761;BME280;33524;55.434;38.520;2023-07-29T05:57:12;99054.50;;;15.77;100.00
47761;BME280;33524;55.434;38.520;2023-07-29T05:59:40;99058.66;;;15.71;100.00
47761;BME280;33524;55.434;38.520;2023-07-29T06:02:08;99047.72;;;15.74;100.00
47761;BME280;33524;55.434;38.520;2023-07-29T06:04:37;99052.66;;;15.77;100.00
47761;BME280;33524;55.434;38.520;2023-07-29T06:07:05;99055.16;;;15.79;100.00
47761;BME280;33524;55.434;38.520;2023-07-29T06:09:34;99058.47;;;15.96;100.00
47761;BME280;33524;55.434;38.520;2023-07-29T06:12:02;99069.09;;;15.96;100.00
47761;BME280;33524;55.434;38.520;2023-07-29T06:14:31;99072.22;;;15.99;100.00
47761;BME280;33524;55.434;38.520;2023-07-29T06:16:59;99076.13;;;16.26;100.00
47761;BME280;33524;55.434;38.520;2023-07-29T06:19:27;99087.53;;;16.12;100.00
47761;BME280;33524;55.434;38.520;2023-07-29T06:21:55;99092.31;;;15.93;100.00
47761;BME280;33524;55.434;38.520;2023-07-29T06:24:23;99100.19;;;16.02;100.00
47761;BME280;33524;55.434;38.520;2023-07-29T06:26:51;99098.97;;;16.12;100.00
47761;BME280;33524;55.434;38.520;2023-07-29T06:29:23;99096.59;;;16.18;100.00
47761;BME280;33524;55.434;38.520;2023-07-29T06:31:51;99093.53;;;16.29;100.00
47761;BME280;33524;55.434;38.520;2023-07-29T06:34:19;99091.88;;;16.28;100.00
47761;BME280;33524;55.434;38.520;2023-07-29T06:36:47;99081.66;;;16.40;100.00
47761;BME280;33524;55.434;38.520;2023-07-29T06:39:15;99073.59;;;16.33;100.00
47761;BME280;33524;55.434;38.520;2023-07-29T06:41:43;99077.47;;;16.22;100.00
47761;BME280;33524;55.434;38.520;2023-07-29T06:44:12;99088.38;;;16.12;100.00
47761;BME280;33524;55.434;38.520;2023-07-29T06:46:40;99091.25;;;16.03;100.00
47761;BME280;33524;55.434;38.520;2023-07-29T06:49:09;99087.16;;;16.00;100.00
47761;BME280;33524;55.434;38.520;2023-07-29T06:51:36;99085.91;;;15.88;100.00
47761;BME280;33524;55.434;38.520;2023-07-29T06:54:05;99085.25;;;16.09;100.00
47761;BME280;33524;55.434;38.520;2023-07-29T06:56:33;99086.94;;;16.02;100.00
47761;BME280;33524;55.434;38.520;2023-07-29T06:59:01;99099.09;;;15.96;100.00
47761;BME280;33524;55.434;38.520;2023-07-29T07:01:30;99101.09;;;16.17;100.00
47761;BME280;33524;55.434;38.520;2023-07-29T07:03:58;99098.78;;;16.14;100.00
47761;BME280;33524;55.434;38.520;2023-07-29T07:06:26;99091.53;;;16.08;100.00
47761;BME280;33524;55.434;38.520;2023-07-29T07:08:55;99103.69;;;16.02;100.00
47761;BME280;33524;55.434;38.520;2023-07-29T07:11:23;99097.41;;;16.18;100.00
47761;BME280;33524;55.434;38.520;2023-07-29T07:13:51;99098.38;;;16.25;100.00
47761;BME280;33524;55.434;38.520;2023-07-29T07:16:20;99106.28;;;16.10;100.00
47761;BME280;33524;55.434;38.520;2023-07-29T07:18:48;99105.03;;;16.21;100.00
47761;BME280;33524;55.434;38.520;2023-07-29T07:21:16;99104.16;;;16.06;100.00
47761;BME280;33524;55.434;38.520;2023-07-29T07:23:44;99103.94;;;15.92;100.00
47761;BME280;33524;55.434;38.520;2023-07-29T07:26:12;99103.31;;;16.05;100.00
47761;BME280;33524;55.434;38.520;2023-07-29T07:28:41;99107.16;;;16.03;100.00
47761;BME280;33524;55.434;38.520;2023-07-29T07:31:12;99109.44;;;16.06;100.00
47761;BME280;33524;55.434;38.520;2023-07-29T07:33:40;99100.38;;;15.77;100.00
47761;BME280;33524;55.434;38.520;2023-07-29T07:36:08;99104.34;;;16.04;100.00
47761;BME280;33524;55.434;38.520;2023-07-29T07:38:37;99114.22;;;15.87;100.00
47761;BME280;33524;55.434;38.520;2023-07-29T07:41:05;99114.34;;;15.71;100.00
47761;BME280;33524;55.434;38.520;2023-07-29T07:43:33;99107.72;;;15.75;100.00
47761;BME280;33524;55.434;38.520;2023-07-29T07:46:03;99113.69;;;15.69;100.00
47761;BME280;33524;55.434;38.520;2023-07-29T07:48:31;99103.03;;;15.77;100.00
47761;BME280;33524;55.434;38.520;2023-07-29T07:51:10;99108.31;;;15.77;100.00
47761;BME280;33524;55.434;38.520;2023-07-29T07:53:41;99109.94;;;15.86;100.00
47761;BME280;33524;55.434;38.520;2023-07-29T07:56:09;99122.44;;;15.78;100.00
47761;BME280;33524;55.434;38.520;2023-07-29T07:58:38;99125.63;;;15.73;100.00
47761;BME280;33524;55.434;38.520;2023-07-29T08:01:08;99117.59;;;15.81;100.00
47761;BME280;33524;55.434;38.520;2023-07-29T08:03:37;99133.84;;;15.78;100.00
47761;BME280;33524;55.434;38.520;2023-07-29T08:06:05;99113.56;;;15.85;100.00
47761;BME280;33524;55.434;38.520;2023-07-29T08:08:37;99129.25;;;15.95;100.00
47761;BME280;33524;55.434;38.520;2023-07-29T08:11:05;99129.16;;;15.88;100.00
47761;BME280;33524;55.434;38.520;2023-07-29T08:13:33;99129.38;;;15.79;100.00
47761;BME280;33524;55.434;38.520;2023-07-29T08:16:02;99129.84;;;15.82;100.00
47761;BME280;33524;55.434;38.520;2023-07-29T08:18:31;99131.38;;;15.77;100.00
47761;BME280;33524;55.434;38.520;2023-07-29T08:21:02;99122.53;;;15.84;100.00
47761;BME280;33524;55.434;38.520;2023-07-29T08:23:32;99129.09;;;15.73;100.00
47761;BME280;33524;55.434;38.520;2023-07-29T08:26:03;99123.84;;;15.88;100.00
47761;BME280;33524;55.434;38.520;2023-07-29T08:28:37;99123.31;;;15.93;100.00
47761;BME280;33524;55.434;38.520;2023-07-29T08:31:06;99128.28;;;15.96;100.00
47761;BME280;33524;55.434;38.520;2023-07-29T08:33:35;99135.50;;;15.79;100.00
47761;BME280;33524;55.434;38.520;2023-07-29T08:36:03;99138.50;;;15.76;100.00
47761;BME280;33524;55.434;38.520;2023-07-29T08:38:32;99134.34;;;15.82;100.00
47761;BME280;33524;55.434;38.520;2023-07-29T08:41:24;99134.84;;;15.77;100.00
47761;BME280;33524;55.434;38.520;2023-07-29T08:46:26;99143.06;;;15.90;100.00
47761;BME280;33524;55.434;38.520;2023-07-29T08:48:55;99139.84;;;15.72;100.00
47761;BME280;33524;55.434;38.520;2023-07-29T08:51:23;99148.56;;;15.81;100.00
47761;BME280;33524;55.434;38.520;2023-07-29T08:53:52;99149.59;;;15.80;100.00
47761;BME280;33524;55.434;38.520;2023-07-29T08:56:21;99148.94;;;16.01;100.00
47761;BME280;33524;55.434;38.520;2023-07-29T08:58:49;99146.56;;;15.83;100.00
47761;BME280;33524;55.434;38.520;2023-07-29T09:01:18;99146.69;;;15.89;100.00
47761;BME280;33524;55.434;38.520;2023-07-29T09:03:46;99147.87;;;16.10;100.00
47761;BME280;33524;55.434;38.520;2023-07-29T09:06:16;99139.50;;;16.21;100.00
47761;BME280;33524;55.434;38.520;2023-07-29T09:08:45;99141.16;;;15.99;100.00
47761;BME280;33524;55.434;38.520;2023-07-29T09:11:14;99140.75;;;16.33;100.00
47761;BME280;33524;55.434;38.520;2023-07-29T09:13:45;99141.84;;;16.16;100.00
47761;BME280;33524;55.434;38.520;2023-07-29T09:16:13;99143.88;;;16.14;100.00
47761;BME280;33524;55.434;38.520;2023-07-29T09:18:42;99152.84;;;16.13;100.00
47761;BME280;33524;55.434;38.520;2023-07-29T09:21:11;99138.94;;;15.88;100.00
47761;BME280;33524;55.434;38.520;2023-07-29T09:23:43;99150.66;;;16.17;100.00
47761;BME280;33524;55.434;38.520;2023-07-29T09:26:27;99147.87;;;16.10;100.00
47761;BME280;33524;55.434;38.520;2023-07-29T09:28:56;99146.13;;;16.02;100.00
47761;BME280;33524;55.434;38.520;2023-07-29T09:31:26;99151.34;;;15.87;100.00
47761;BME280;33524;55.434;38.520;2023-07-29T09:33:58;99149.34;;;15.89;100.00
47761;BME280;33524;55.434;38.520;2023-07-29T09:36:27;99150.69;;;15.85;100.00
47761;BME280;33524;55.434;38.520;2023-07-29T09:38:56;99141.97;;;15.77;100.00
47761;BME280;33524;55.434;38.520;2023-07-29T09:41:25;99145.06;;;15.88;100.00
47761;BME280;33524;55.434;38.520;2023-07-29T09:43:59;99143.16;;;15.66;100.00
47761;BME280;33524;55.434;38.520;2023-07-29T09:46:35;99146.13;;;15.71;100.00
47761;BME280;33524;55.434;38.520;2023-07-29T09:49:06;99134.09;;;15.60;100.00
47761;BME280;33524;55.434;38.520;2023-07-29T09:51:41;99133.09;;;15.61;100.00
47761;BME280;33524;55.434;38.520;2023-07-29T09:54:10;99129.31;;;15.87;100.00
47761;BME280;33524;55.434;38.520;2023-07-29T09:56:41;99114.28;;;15.79;100.00
47761;BME280;33524;55.434;38.520;2023-07-29T09:59:12;99122.28;;;15.71;100.00
47761;BME280;33524;55.434;38.520;2023-07-29T10:01:41;99124.00;;;15.56;100.00
47761;BME280;33524;55.434;38.520;2023-07-29T10:04:10;99120.62;;;15.70;100.00
47761;BME280;33524;55.434;38.520;2023-07-29T10:06:41;99115.13;;;15.48;100.00
47761;BME280;33524;55.434;38.520;2023-07-29T10:09:11;99112.81;;;15.45;100.00
47761;BME280;33524;55.434;38.520;2023-07-29T10:11:41;99115.66;;;15.36;100.00
47761;BME280;33524;55.434;38.520;2023-07-29T10:14:09;99128.38;;;15.48;100.00
47761;BME280;33524;55.434;38.520;2023-07-29T10:16:40;99131.97;;;15.56;100.00
47761;BME280;33524;55.434;38.520;2023-07-29T10:19:09;99138.34;;;15.38;100.00
47761;BME280;33524;55.434;38.520;2023-07-29T10:21:39;99146.59;;;15.43;100.00
47761;BME280;33524;55.434;38.520;2023-07-29T10:24:14;99157.38;;;15.42;100.00
47761;BME280;33524;55.434;38.520;2023-07-29T10:27:02;99167.84;;;15.35;100.00
47761;BME280;33524;55.434;38.520;2023-07-29T10:29:31;99170.59;;;15.42;100.00
47761;BME280;33524;55.434;38.520;2023-07-29T10:32:07;99174.75;;;15.44;100.00
47761;BME280;33524;55.434;38.520;2023-07-29T10:34:38;99176.38;;;15.53;100.00
47761;BME280;33524;55.434;38.520;2023-07-29T10:37:07;99177.09;;;15.39;100.00
47761;BME280;33524;55.434;38.520;2023-07-29T10:39:39;99184.44;;;15.21;100.00
47761;BME280;33524;55.434;38.520;2023-07-29T10:42:08;99193.34;;;15.36;100.00
47761;BME280;33524;55.434;38.520;2023-07-29T10:47:23;99187.47;;;15.01;100.00
47761;BME280;33524;55.434;38.520;2023-07-29T10:49:56;99195.59;;;15.00;100.00
47761;BME280;33524;55.434;38.520;2023-07-29T10:52:37;99206.97;;;15.17;100.00
47761;BME280;33524;55.434;38.520;2023-07-29T10:55:28;99208.69;;;14.93;100.00
47761;BME280;33524;55.434;38.520;2023-07-29T10:58:08;99213.81;;;14.86;100.00
47761;BME280;33524;55.434;38.520;2023-07-29T11:00:38;99210.53;;;14.84;100.00
47761;BME280;33524;55.434;38.520;2023-07-29T11:03:08;99211.66;;;14.82;100.00
47761;BME280;33524;55.434;38.520;2023-07-29T11:08:31;99218.06;;;15.20;100.00
47761;BME280;33524;55.434;38.520;2023-07-29T11:11:07;99207.50;;;14.96;100.00
47761;BME280;33524;55.434;38.520;2023-07-29T11:13:37;99212.94;;;15.02;100.00
47761;BME280;33524;55.434;38.520;2023-07-29T11:16:23;99214.94;;;15.00;100.00
47761;BME280;33524;55.434;38.520;2023-07-29T11:18:51;99215.63;;;14.86;100.00
47761;BME280;33524;55.434;38.520;2023-07-29T11:21:20;99213.84;;;14.70;100.00
47761;BME280;33524;55.434;38.520;2023-07-29T11:23:48;99208.22;;;14.57;100.00
47761;BME280;33524;55.434;38.520;2023-07-29T11:26:17;99215.44;;;14.54;100.00
47761;BME280;33524;55.434;38.520;2023-07-29T11:28:46;99213.31;;;14.50;100.00
47761;BME280;33524;55.434;38.520;2023-07-29T11:31:14;99206.34;;;14.49;100.00
47761;BME280;33524;55.434;38.520;2023-07-29T11:33:42;99210.50;;;14.51;100.00
47761;BME280;33524;55.434;38.520;2023-07-29T11:36:19;99211.66;;;14.49;100.00
47761;BME280;33524;55.434;38.520;2023-07-29T11:38:48;99212.81;;;14.46;100.00
47761;BME280;33524;55.434;38.520;2023-07-29T11:41:19;99210.69;;;14.75;100.00
47761;BME280;33524;55.434;38.520;2023-07-29T11:43:49;99211.31;;;14.44;100.00
47761;BME280;33524;55.434;38.520;2023-07-29T11:46:21;99216.47;;;14.37;100.00
47761;BME280;33524;55.434;38.520;2023-07-29T11:48:49;99214.47;;;14.47;100.00
47761;BME280;33524;55.434;38.520;2023-07-29T11:51:17;99215.44;;;14.46;100.00
47761;BME280;33524;55.434;38.520;2023-07-29T11:53:45;99217.94;;;14.40;100.00
47761;BME280;33524;55.434;38.520;2023-07-29T11:56:32;99225.19;;;14.29;100.00
47761;BME280;33524;55.434;38.520;2023-07-29T11:59:01;99219.25;;;14.36;100.00
47761;BME280;33524;55.434;38.520;2023-07-29T12:01:30;99222.91;;;14.26;100.00
47761;BME280;33524;55.434;38.520;2023-07-29T12:03:59;99220.59;;;14.40;100.00
47761;BME280;33524;55.434;38.520;2023-07-29T12:06:28;99216.44;;;14.29;100.00
47761;BME280;33524;55.434;38.520;2023-07-29T12:08:58;99211.47;;;14.26;100.00
47761;BME280;33524;55.434;38.520;2023-07-29T12:11:45;99213.44;;;14.24;100.00
47761;BME280;33524;55.434;38.520;2023-07-29T12:14:16;99216.09;;;14.24;100.00
47761;BME280;33524;55.434;38.520;2023-07-29T12:16:48;99210.47;;;14.19;100.00
47761;BME280;33524;55.434;38.520;2023-07-29T12:19:17;99217.09;;;14.23;100.00
47761;BME280;33524;55.434;38.520;2023-07-29T12:21:46;99213.97;;;14.27;100.00
47761;BME280;33524;55.434;38.520;2023-07-29T12:24:14;99214.63;;;14.21;100.00
47761;BME280;33524;55.434;38.520;2023-07-29T12:26:42;99208.19;;;14.40;100.00
47761;BME280;33524;55.434;38.520;2023-07-29T12:29:17;99213.97;;;14.36;100.00
47761;BME280;33524;55.434;38.520;2023-07-29T12:31:47;99215.81;;;14.43;100.00
47761;BME280;33524;55.434;38.520;2023-07-29T12:34:20;99207.69;;;14.37;100.00
47761;BME280;33524;55.434;38.520;2023-07-29T12:36:49;99199.56;;;14.38;100.00
47761;BME280;33524;55.434;38.520;2023-07-29T12:39:23;99202.72;;;14.50;100.00
47761;BME280;33524;55.434;38.520;2023-07-29T12:41:53;99199.09;;;14.43;100.00
47761;BME280;33524;55.434;38.520;2023-07-29T12:44:26;99195.44;;;14.36;100.00
47761;BME280;33524;55.434;38.520;2023-07-29T12:46:55;99194.28;;;14.38;100.00
47761;BME280;33524;55.434;38.520;2023-07-29T12:49:24;99197.94;;;14.37;100.00
47761;BME280;33524;55.434;38.520;2023-07-29T12:51:52;99199.75;;;14.28;100.00
47761;BME280;33524;55.434;38.520;2023-07-29T12:54:21;99200.59;;;14.29;100.00
47761;BME280;33524;55.434;38.520;2023-07-29T12:56:49;99196.78;;;14.31;100.00
47761;BME280;33524;55.434;38.520;2023-07-29T12:59:17;99196.28;;;14.44;100.00
47761;BME280;33524;55.434;38.520;2023-07-29T13:01:46;99205.72;;;14.39;100.00